Terminal Aerodrome Forecast
Issued by NWS Los Angeles, CA

Home | Current Version | Previous Version | Text Only | Print | Product List | Glossary On
Versions: 1 2 3 4 5 6 7 8 9 10 11 12 13 14 15 16 17 18 19 20 21 22 23
305
FTUS46 KLOX 192359
TAFSMX
TAF
KSMX 192359Z 2000/2024 28010KT P6SM SCT025 SCT050
     FM200200 VRB03KT P6SM SCT025 BKN050
     FM200600 15007KT P6SM VCSH BKN020 BKN050
     FM201000 15010KT 5SM -RA BR BKN015 OVC025
     FM201400 15015G25KT 2SM RA BR BKN007 OVC015
     FM201800 25020G30KT 4SM -RA BR BKN015 OVC025=

USA.gov is the U.S. government's official web portal to all federal, state and local government web resources and services.